sensor_id;sensor_type;location;lat;lon;timestamp;temperature;humidity
12125;DHT22;6126;57.908;16.490;2022-10-16T00:01:27;12.30;96.20
12125;DHT22;6126;57.908;16.490;2022-10-16T00:03:56;12.20;96.20
12125;DHT22;6126;57.908;16.490;2022-10-16T00:06:24;12.20;96.10
12125;DHT22;6126;57.908;16.490;2022-10-16T00:08:51;12.40;96.30
12125;DHT22;6126;57.908;16.490;2022-10-16T00:11:23;12.30;96.20
12125;DHT22;6126;57.908;16.490;2022-10-16T00:13:54;12.40;96.20
12125;DHT22;6126;57.908;16.490;2022-10-16T00:16:22;12.20;96.10
12125;DHT22;6126;57.908;16.490;2022-10-16T00:18:48;12.20;96.20
12125;DHT22;6126;57.908;16.490;2022-10-16T00:21:17;12.00;96.10
12125;DHT22;6126;57.908;16.490;2022-10-16T00:23:46;12.10;96.10
12125;DHT22;6126;57.908;16.490;2022-10-16T00:26:15;12.30;96.30
12125;DHT22;6126;57.908;16.490;2022-10-16T00:28:44;12.10;96.20
12125;DHT22;6126;57.908;16.490;2022-10-16T00:31:12;12.20;96.30
12125;DHT22;6126;57.908;16.490;2022-10-16T00:33:39;12.20;96.30
12125;DHT22;6126;57.908;16.490;2022-10-16T00:36:07;12.10;96.20
12125;DHT22;6126;57.908;16.490;2022-10-16T00:38:35;12.20;96.30
12125;DHT22;6126;57.908;16.490;2022-10-16T00:41:03;12.20;96.20
12125;DHT22;6126;57.908;16.490;2022-10-16T00:43:44;12.20;96.20
12125;DHT22;6126;57.908;16.490;2022-10-16T00:49:17;12.00;96.10
12125;DHT22;6126;57.908;16.490;2022-10-16T00:51:47;12.20;96.20
12125;DHT22;6126;57.908;16.490;2022-10-16T00:54:24;12.10;96.20
12125;DHT22;6126;57.908;16.490;2022-10-16T00:56:54;12.30;96.20
12125;DHT22;6126;57.908;16.490;2022-10-16T00:59:33;12.10;96.10
12125;DHT22;6126;57.908;16.490;2022-10-16T01:02:03;12.40;96.30
12125;DHT22;6126;57.908;16.490;2022-10-16T01:04:35;12.20;96.20
12125;DHT22;6126;57.908;16.490;2022-10-16T01:10:35;12.20;96.10
12125;DHT22;6126;57.908;16.490;2022-10-16T01:16:08;12.00;96.00
12125;DHT22;6126;57.908;16.490;2022-10-16T01:18:51;11.90;96.00
12125;DHT22;6126;57.908;16.490;2022-10-16T01:21:32;11.90;96.00
12125;DHT22;6126;57.908;16.490;2022-10-16T01:24:38;12.20;96.20
12125;DHT22;6126;57.908;16.490;2022-10-16T01:35:31;11.90;96.10
12125;DHT22;6126;57.908;16.490;2022-10-16T01:38:33;11.90;96.10
12125;DHT22;6126;57.908;16.490;2022-10-16T01:43:50;12.00;96.20
12125;DHT22;6126;57.908;16.490;2022-10-16T01:46:22;11.90;96.10
12125;DHT22;6126;57.908;16.490;2022-10-16T01:48:49;12.10;96.20
12125;DHT22;6126;57.908;16.490;2022-10-16T01:51:18;12.10;96.20
12125;DHT22;6126;57.908;16.490;2022-10-16T01:53:49;12.10;96.20
12125;DHT22;6126;57.908;16.490;2022-10-16T01:56:20;11.90;96.10
12125;DHT22;6126;57.908;16.490;2022-10-16T01:58:55;12.00;96.20
12125;DHT22;6126;57.908;16.490;2022-10-16T02:01:26;12.00;96.20
12125;DHT22;6126;57.908;16.490;2022-10-16T02:03:58;12.00;96.20
12125;DHT22;6126;57.908;16.490;2022-10-16T02:06:27;12.00;96.20
12125;DHT22;6126;57.908;16.490;2022-10-16T02:08:54;12.10;96.20
12125;DHT22;6126;57.908;16.490;2022-10-16T02:11:20;11.80;96.10
12125;DHT22;6126;57.908;16.490;2022-10-16T02:14:05;12.10;96.20
12125;DHT22;6126;57.908;16.490;2022-10-16T02:16:42;12.10;96.20
12125;DHT22;6126;57.908;16.490;2022-10-16T02:19:10;12.10;96.20
12125;DHT22;6126;57.908;16.490;2022-10-16T02:21:58;12.10;96.20
12125;DHT22;6126;57.908;16.490;2022-10-16T02:24:32;12.10;96.20
12125;DHT22;6126;57.908;16.490;2022-10-16T02:30:33;11.80;96.10
12125;DHT22;6126;57.908;16.490;2022-10-16T02:33:03;12.00;96.20
12125;DHT22;6126;57.908;16.490;2022-10-16T02:35:33;12.20;96.30
12125;DHT22;6126;57.908;16.490;2022-10-16T02:38:01;12.10;96.30
12125;DHT22;6126;57.908;16.490;2022-10-16T02:40:28;12.10;96.30
12125;DHT22;6126;57.908;16.490;2022-10-16T02:42:55;11.90;96.20
12125;DHT22;6126;57.908;16.490;2022-10-16T02:45:22;12.10;96.30
12125;DHT22;6126;57.908;16.490;2022-10-16T02:47:49;12.00;96.30
12125;DHT22;6126;57.908;16.490;2022-10-16T02:50:15;12.00;96.20
12125;DHT22;6126;57.908;16.490;2022-10-16T02:52:41;12.00;96.20
12125;DHT22;6126;57.908;16.490;2022-10-16T02:55:07;11.90;96.20
12125;DHT22;6126;57.908;16.490;2022-10-16T02:57:34;12.10;96.30
12125;DHT22;6126;57.908;16.490;2022-10-16T03:00:03;11.80;96.20
12125;DHT22;6126;57.908;16.490;2022-10-16T03:02:30;12.20;96.40
12125;DHT22;6126;57.908;16.490;2022-10-16T03:04:56;12.10;96.30
12125;DHT22;6126;57.908;16.490;2022-10-16T03:07:22;11.90;96.20
12125;DHT22;6126;57.908;16.490;2022-10-16T03:09:47;12.00;96.30
12125;DHT22;6126;57.908;16.490;2022-10-16T03:12:13;12.20;96.40
12125;DHT22;6126;57.908;16.490;2022-10-16T03:14:39;11.80;96.20
12125;DHT22;6126;57.908;16.490;2022-10-16T03:17:05;12.00;96.30
12125;DHT22;6126;57.908;16.490;2022-10-16T03:19:31;12.00;96.30
12125;DHT22;6126;57.908;16.490;2022-10-16T03:21:57;12.10;96.40
12125;DHT22;6126;57.908;16.490;2022-10-16T03:24:23;12.20;96.50
12125;DHT22;6126;57.908;16.490;2022-10-16T03:26:49;11.90;96.30
12125;DHT22;6126;57.908;16.490;2022-10-16T03:29:15;11.80;96.60
12125;DHT22;6126;57.908;16.490;2022-10-16T03:31:40;11.90;96.70
12125;DHT22;6126;57.908;16.490;2022-10-16T03:34:06;12.10;96.40
12125;DHT22;6126;57.908;16.490;2022-10-16T03:36:32;12.10;96.40
12125;DHT22;6126;57.908;16.490;2022-10-16T03:38:58;12.00;96.40
12125;DHT22;6126;57.908;16.490;2022-10-16T03:41:24;12.00;96.40
12125;DHT22;6126;57.908;16.490;2022-10-16T03:43:50;12.00;96.40
12125;DHT22;6126;57.908;16.490;2022-10-16T03:46:16;12.00;96.40
12125;DHT22;6126;57.908;16.490;2022-10-16T03:48:41;12.10;96.50
12125;DHT22;6126;57.908;16.490;2022-10-16T03:51:07;12.10;96.40
12125;DHT22;6126;57.908;16.490;2022-10-16T03:53:33;12.00;96.40
12125;DHT22;6126;57.908;16.490;2022-10-16T03:55:59;12.10;96.50
12125;DHT22;6126;57.908;16.490;2022-10-16T03:58:25;12.00;96.50
12125;DHT22;6126;57.908;16.490;2022-10-16T04:00:51;11.80;96.30
12125;DHT22;6126;57.908;16.490;2022-10-16T04:03:17;11.90;96.40
12125;DHT22;6126;57.908;16.490;2022-10-16T04:05:44;12.00;96.50
12125;DHT22;6126;57.908;16.490;2022-10-16T04:08:10;12.00;96.50
12125;DHT22;6126;57.908;16.490;2022-10-16T04:10:36;12.00;96.50
12125;DHT22;6126;57.908;16.490;2022-10-16T04:13:02;12.00;96.50
12125;DHT22;6126;57.908;16.490;2022-10-16T04:15:28;11.80;96.40
12125;DHT22;6126;57.908;16.490;2022-10-16T04:17:54;11.90;96.50
12125;DHT22;6126;57.908;16.490;2022-10-16T04:20:20;11.80;96.50
12125;DHT22;6126;57.908;16.490;2022-10-16T04:22:46;11.90;96.50
12125;DHT22;6126;57.908;16.490;2022-10-16T04:25:12;11.70;96.50
12125;DHT22;6126;57.908;16.490;2022-10-16T04:27:38;11.90;96.60
12125;DHT22;6126;57.908;16.490;2022-10-16T04:30:04;11.90;96.60
12125;DHT22;6126;57.908;16.490;2022-10-16T04:32:31;11.90;96.60
12125;DHT22;6126;57.908;16.490;2022-10-16T04:34:57;11.90;96.50
12125;DHT22;6126;57.908;16.490;2022-10-16T04:37:26;12.10;96.60
12125;DHT22;6126;57.908;16.490;2022-10-16T04:39:53;12.20;96.70
12125;DHT22;6126;57.908;16.490;2022-10-16T04:42:20;12.30;96.70
12125;DHT22;6126;57.908;16.490;2022-10-16T04:44:47;12.00;96.60
12125;DHT22;6126;57.908;16.490;2022-10-16T04:47:13;12.10;96.60
12125;DHT22;6126;57.908;16.490;2022-10-16T04:49:39;12.00;96.60
12125;DHT22;6126;57.908;16.490;2022-10-16T04:52:05;12.10;96.60
12125;DHT22;6126;57.908;16.490;2022-10-16T04:54:31;12.10;96.60
12125;DHT22;6126;57.908;16.490;2022-10-16T04:56:57;12.10;96.70
12125;DHT22;6126;57.908;16.490;2022-10-16T04:59:23;12.30;96.80
12125;DHT22;6126;57.908;16.490;2022-10-16T05:01:49;12.30;96.80
12125;DHT22;6126;57.908;16.490;2022-10-16T05:04:15;12.30;96.80
12125;DHT22;6126;57.908;16.490;2022-10-16T05:06:42;12.20;96.80
12125;DHT22;6126;57.908;16.490;2022-10-16T05:09:08;12.20;96.80
12125;DHT22;6126;57.908;16.490;2022-10-16T05:11:35;11.90;96.60
12125;DHT22;6126;57.908;16.490;2022-10-16T05:14:01;12.00;96.70
12125;DHT22;6126;57.908;16.490;2022-10-16T05:16:27;12.30;96.90
12125;DHT22;6126;57.908;16.490;2022-10-16T05:18:54;12.00;96.80
12125;DHT22;6126;57.908;16.490;2022-10-16T05:21:20;12.20;96.80
12125;DHT22;6126;57.908;16.490;2022-10-16T05:23:46;12.20;96.80
12125;DHT22;6126;57.908;16.490;2022-10-16T05:26:12;12.20;96.80
12125;DHT22;6126;57.908;16.490;2022-10-16T05:28:38;12.20;96.90
12125;DHT22;6126;57.908;16.490;2022-10-16T05:31:08;12.00;96.70
12125;DHT22;6126;57.908;16.490;2022-10-16T05:33:35;12.00;96.70
12125;DHT22;6126;57.908;16.490;2022-10-16T05:36:05;12.00;96.70
12125;DHT22;6126;57.908;16.490;2022-10-16T05:38:34;12.30;96.90
12125;DHT22;6126;57.908;16.490;2022-10-16T05:41:00;12.30;97.00
12125;DHT22;6126;57.908;16.490;2022-10-16T05:43:27;12.20;96.90
12125;DHT22;6126;57.908;16.490;2022-10-16T05:46:05;11.90;96.80
12125;DHT22;6126;57.908;16.490;2022-10-16T05:48:32;12.10;96.90
12125;DHT22;6126;57.908;16.490;2022-10-16T05:51:02;11.90;96.80
12125;DHT22;6126;57.908;16.490;2022-10-16T05:53:32;12.00;96.90
12125;DHT22;6126;57.908;16.490;2022-10-16T05:55:59;11.90;96.90
12125;DHT22;6126;57.908;16.490;2022-10-16T05:58:29;11.90;96.90
12125;DHT22;6126;57.908;16.490;2022-10-16T06:01:06;12.10;97.00
12125;DHT22;6126;57.908;16.490;2022-10-16T06:03:36;11.90;96.90
12125;DHT22;6126;57.908;16.490;2022-10-16T06:06:16;11.90;96.90
12125;DHT22;6126;57.908;16.490;2022-10-16T06:08:45;11.90;96.90
12125;DHT22;6126;57.908;16.490;2022-10-16T06:11:14;11.90;96.90
12125;DHT22;6126;57.908;16.490;2022-10-16T06:13:42;12.20;97.10
12125;DHT22;6126;57.908;16.490;2022-10-16T06:16:09;11.90;97.00
12125;DHT22;6126;57.908;16.490;2022-10-16T06:18:36;11.70;96.90
12125;DHT22;6126;57.908;16.490;2022-10-16T06:21:08;12.20;97.10
12125;DHT22;6126;57.908;16.490;2022-10-16T06:23:36;12.10;97.00
12125;DHT22;6126;57.908;16.490;2022-10-16T06:26:10;12.20;97.10
12125;DHT22;6126;57.908;16.490;2022-10-16T06:28:37;11.80;97.00
12125;DHT22;6126;57.908;16.490;2022-10-16T06:31:05;12.30;97.20
12125;DHT22;6126;57.908;16.490;2022-10-16T06:33:32;12.10;97.10
12125;DHT22;6126;57.908;16.490;2022-10-16T06:36:10;12.30;97.20
12125;DHT22;6126;57.908;16.490;2022-10-16T06:38:37;12.30;97.30
12125;DHT22;6126;57.908;16.490;2022-10-16T06:41:05;12.40;97.20
12125;DHT22;6126;57.908;16.490;2022-10-16T06:43:32;12.00;97.00
12125;DHT22;6126;57.908;16.490;2022-10-16T06:46:01;12.30;97.10
12125;DHT22;6126;57.908;16.490;2022-10-16T06:48:28;12.20;97.10
12125;DHT22;6126;57.908;16.490;2022-10-16T06:51:00;12.40;97.20
12125;DHT22;6126;57.908;16.490;2022-10-16T06:53:30;12.40;97.10
12125;DHT22;6126;57.908;16.490;2022-10-16T06:55:57;12.40;97.10
12125;DHT22;6126;57.908;16.490;2022-10-16T06:58:31;12.50;97.10
12125;DHT22;6126;57.908;16.490;2022-10-16T07:00:57;12.50;97.10
12125;DHT22;6126;57.908;16.490;2022-10-16T07:03:23;12.50;97.10
12125;DHT22;6126;57.908;16.490;2022-10-16T07:05:49;12.50;97.10
12125;DHT22;6126;57.908;16.490;2022-10-16T07:08:15;12.50;97.10
12125;DHT22;6126;57.908;16.490;2022-10-16T07:10:40;12.60;97.10
12125;DHT22;6126;57.908;16.490;2022-10-16T07:13:06;12.50;97.10
12125;DHT22;6126;57.908;16.490;2022-10-16T07:15:39;12.70;97.10
12125;DHT22;6126;57.908;16.490;2022-10-16T07:18:04;12.80;97.10
12125;DHT22;6126;57.908;16.490;2022-10-16T07:20:30;12.60;97.00
12125;DHT22;6126;57.908;16.490;2022-10-16T07:22:56;12.90;97.10
12125;DHT22;6126;57.908;16.490;2022-10-16T07:25:22;12.80;97.00
12125;DHT22;6126;57.908;16.490;2022-10-16T07:27:48;12.90;97.10
12125;DHT22;6126;57.908;16.490;2022-10-16T07:30:14;12.80;97.00
12125;DHT22;6126;57.908;16.490;2022-10-16T07:32:40;13.10;97.10
12125;DHT22;6126;57.908;16.490;2022-10-16T07:35:06;12.80;96.90
12125;DHT22;6126;57.908;16.490;2022-10-16T07:37:32;13.10;97.10
12125;DHT22;6126;57.908;16.490;2022-10-16T07:39:58;12.90;97.00
12125;DHT22;6126;57.908;16.490;2022-10-16T07:42:24;12.90;97.00
12125;DHT22;6126;57.908;16.490;2022-10-16T07:44:50;13.10;97.10
12125;DHT22;6126;57.908;16.490;2022-10-16T07:47:15;13.00;97.00
12125;DHT22;6126;57.908;16.490;2022-10-16T07:49:41;13.20;97.00
12125;DHT22;6126;57.908;16.490;2022-10-16T07:52:07;13.00;96.90
12125;DHT22;6126;57.908;16.490;2022-10-16T07:54:33;13.20;96.90
12125;DHT22;6126;57.908;16.490;2022-10-16T07:56:59;13.00;97.20
12125;DHT22;6126;57.908;16.490;2022-10-16T07:59:24;13.30;96.90
12125;DHT22;6126;57.908;16.490;2022-10-16T08:01:50;13.40;97.00
12125;DHT22;6126;57.908;16.490;2022-10-16T08:04:16;13.20;96.90
12125;DHT22;6126;57.908;16.490;2022-10-16T08:06:42;13.10;96.80
12125;DHT22;6126;57.908;16.490;2022-10-16T08:09:08;13.40;96.90
12125;DHT22;6126;57.908;16.490;2022-10-16T08:11:34;13.50;96.90
12125;DHT22;6126;57.908;16.490;2022-10-16T08:14:00;13.60;96.90
12125;DHT22;6126;57.908;16.490;2022-10-16T08:16:26;13.20;97.00
12125;DHT22;6126;57.908;16.490;2022-10-16T08:18:52;13.50;96.80
12125;DHT22;6126;57.908;16.490;2022-10-16T08:21:20;13.40;96.80
12125;DHT22;6126;57.908;16.490;2022-10-16T08:23:49;13.30;96.70
12125;DHT22;6126;57.908;16.490;2022-10-16T08:26:16;13.60;96.80
12125;DHT22;6126;57.908;16.490;2022-10-16T08:28:42;13.60;96.70
12125;DHT22;6126;57.908;16.490;2022-10-16T08:31:13;13.70;96.70
12125;DHT22;6126;57.908;16.490;2022-10-16T08:33:42;13.60;96.70
12125;DHT22;6126;57.908;16.490;2022-10-16T08:36:11;13.60;96.70
12125;DHT22;6126;57.908;16.490;2022-10-16T08:38:37;13.70;96.70
12125;DHT22;6126;57.908;16.490;2022-10-16T08:49:34;13.70;96.50
12125;DHT22;6126;57.908;16.490;2022-10-16T08:52:01;14.10;96.60
12125;DHT22;6126;57.908;16.490;2022-10-16T08:54:34;13.90;96.50
12125;DHT22;6126;57.908;16.490;2022-10-16T08:57:17;14.10;96.50
12125;DHT22;6126;57.908;16.490;2022-10-16T08:59:45;14.00;96.40
12125;DHT22;6126;57.908;16.490;2022-10-16T09:02:31;14.20;96.50
12125;DHT22;6126;57.908;16.490;2022-10-16T09:11:14;14.10;96.20
12125;DHT22;6126;57.908;16.490;2022-10-16T09:21:09;14.10;96.20
12125;DHT22;6126;57.908;16.490;2022-10-16T09:23:41;14.20;96.20
12125;DHT22;6126;57.908;16.490;2022-10-16T09:26:12;14.00;96.00
12125;DHT22;6126;57.908;16.490;2022-10-16T09:28:39;14.40;96.20
12125;DHT22;6126;57.908;16.490;2022-10-16T09:31:07;14.30;96.10
12125;DHT22;6126;57.908;16.490;2022-10-16T09:33:41;14.20;96.10
12125;DHT22;6126;57.908;16.490;2022-10-16T09:36:09;14.20;96.00
12125;DHT22;6126;57.908;16.490;2022-10-16T09:38:37;14.20;96.00
12125;DHT22;6126;57.908;16.490;2022-10-16T09:41:19;14.20;95.90
12125;DHT22;6126;57.908;16.490;2022-10-16T09:43:59;14.10;95.90
12125;DHT22;6126;57.908;16.490;2022-10-16T09:49:02;14.30;95.90
12125;DHT22;6126;57.908;16.490;2022-10-16T09:51:30;14.30;95.90
12125;DHT22;6126;57.908;16.490;2022-10-16T09:54:14;14.30;95.90
12125;DHT22;6126;57.908;16.490;2022-10-16T09:56:42;14.10;95.70
12125;DHT22;6126;57.908;16.490;2022-10-16T09:59:15;14.30;95.80
12125;DHT22;6126;57.908;16.490;2022-10-16T10:02:03;14.40;95.70
12125;DHT22;6126;57.908;16.490;2022-10-16T10:04:43;14.60;95.70
12125;DHT22;6126;57.908;16.490;2022-10-16T10:10:22;14.50;95.50
12125;DHT22;6126;57.908;16.490;2022-10-16T10:12:50;15.00;95.70
12125;DHT22;6126;57.908;16.490;2022-10-16T10:15:16;14.80;95.50
12125;DHT22;6126;57.908;16.490;2022-10-16T10:22:55;15.00;95.20
12125;DHT22;6126;57.908;16.490;2022-10-16T10:25:56;15.20;95.30
12125;DHT22;6126;57.908;16.490;2022-10-16T10:31:42;15.20;95.20
12125;DHT22;6126;57.908;16.490;2022-10-16T10:40:30;15.30;95.00
12125;DHT22;6126;57.908;16.490;2022-10-16T10:43:27;15.40;95.00
12125;DHT22;6126;57.908;16.490;2022-10-16T10:46:04;15.60;94.90
12125;DHT22;6126;57.908;16.490;2022-10-16T10:51:23;15.70;94.60
12125;DHT22;6126;57.908;16.490;2022-10-16T10:54:41;15.70;94.50
12125;DHT22;6126;57.908;16.490;2022-10-16T11:03:06;15.20;94.10
12125;DHT22;6126;57.908;16.490;2022-10-16T11:09:02;15.30;94.30
12125;DHT22;6126;57.908;16.490;2022-10-16T11:11:25;15.10;94.30
12125;DHT22;6126;57.908;16.490;2022-10-16T11:16:51;15.40;94.50
12125;DHT22;6126;57.908;16.490;2022-10-16T11:19:39;15.60;94.40
12125;DHT22;6126;57.908;16.490;2022-10-16T11:22:26;15.60;94.00
12125;DHT22;6126;57.908;16.490;2022-10-16T11:25:20;15.50;93.80
12125;DHT22;6126;57.908;16.490;2022-10-16T11:30:23;15.70;93.90
12125;DHT22;6126;57.908;16.490;2022-10-16T11:33:04;15.70;93.90
12125;DHT22;6126;57.908;16.490;2022-10-16T11:41:45;15.70;93.80
12125;DHT22;6126;57.908;16.490;2022-10-16T11:47:48;15.70;93.50
12125;DHT22;6126;57.908;16.490;2022-10-16T11:50:48;15.70;93.40
12125;DHT22;6126;57.908;16.490;2022-10-16T11:56:04;15.70;93.10
12125;DHT22;6126;57.908;16.490;2022-10-16T11:58:37;15.90;93.20
12125;DHT22;6126;57.908;16.490;2022-10-16T12:01:24;15.80;93.10
12125;DHT22;6126;57.908;16.490;2022-10-16T12:07:24;15.60;93.10
12125;DHT22;6126;57.908;16.490;2022-10-16T12:09:57;15.80;93.20
12125;DHT22;6126;57.908;16.490;2022-10-16T12:17:51;16.10;93.00
12125;DHT22;6126;57.908;16.490;2022-10-16T12:20:22;16.30;92.80
12125;DHT22;6126;57.908;16.490;2022-10-16T12:23:00;16.30;92.70
12125;DHT22;6126;57.908;16.490;2022-10-16T12:25:34;16.40;92.70
12125;DHT22;6126;57.908;16.490;2022-10-16T12:28:22;16.30;92.60
12125;DHT22;6126;57.908;16.490;2022-10-16T12:31:00;16.30;92.50
12125;DHT22;6126;57.908;16.490;2022-10-16T12:33:33;16.50;92.50
12125;DHT22;6126;57.908;16.490;2022-10-16T12:36:05;16.50;92.30
12125;DHT22;6126;57.908;16.490;2022-10-16T12:38:50;16.70;92.20
12125;DHT22;6126;57.908;16.490;2022-10-16T12:41:32;16.60;91.90
12125;DHT22;6126;57.908;16.490;2022-10-16T12:44:00;16.50;91.80
12125;DHT22;6126;57.908;16.490;2022-10-16T12:51:40;16.40;91.90
12125;DHT22;6126;57.908;16.490;2022-10-16T12:54:19;16.30;91.80
12125;DHT22;6126;57.908;16.490;2022-10-16T12:57:12;16.40;91.80
12125;DHT22;6126;57.908;16.490;2022-10-16T13:06:18;16.30;91.40
12125;DHT22;6126;57.908;16.490;2022-10-16T13:09:02;16.50;91.60
12125;DHT22;6126;57.908;16.490;2022-10-16T13:12:12;16.30;91.50
12125;DHT22;6126;57.908;16.490;2022-10-16T13:17:45;16.00;91.40
12125;DHT22;6126;57.908;16.490;2022-10-16T13:23:27;15.90;91.40
12125;DHT22;6126;57.908;16.490;2022-10-16T13:27:17;15.90;91.50
12125;DHT22;6126;57.908;16.490;2022-10-16T13:29:15;15.90;91.50
12125;DHT22;6126;57.908;16.490;2022-10-16T13:31:43;15.70;91.30
12125;DHT22;6126;57.908;16.490;2022-10-16T13:34:15;16.00;91.40
12125;DHT22;6126;57.908;16.490;2022-10-16T13:36:50;15.70;91.30
12125;DHT22;6126;57.908;16.490;2022-10-16T13:39:26;15.60;91.30
12125;DHT22;6126;57.908;16.490;2022-10-16T13:42:20;15.80;91.40
12125;DHT22;6126;57.908;16.490;2022-10-16T13:44:51;15.60;91.30
12125;DHT22;6126;57.908;16.490;2022-10-16T13:47:23;15.60;91.30
12125;DHT22;6126;57.908;16.490;2022-10-16T13:50:01;15.50;91.20
12125;DHT22;6126;57.908;16.490;2022-10-16T13:52:34;15.60;91.20
12125;DHT22;6126;57.908;16.490;2022-10-16T13:55:00;15.80;91.20
12125;DHT22;6126;57.908;16.490;2022-10-16T13:57:26;15.90;91.10
12125;DHT22;6126;57.908;16.490;2022-10-16T13:59:54;16.10;91.00
12125;DHT22;6126;57.908;16.490;2022-10-16T14:02:33;15.80;90.80
12125;DHT22;6126;57.908;16.490;2022-10-16T14:05:04;16.10;90.90
12125;DHT22;6126;57.908;16.490;2022-10-16T14:07:34;15.90;90.70
12125;DHT22;6126;57.908;16.490;2022-10-16T14:10:06;16.00;90.70
12125;DHT22;6126;57.908;16.490;2022-10-16T14:12:43;15.90;90.80
12125;DHT22;6126;57.908;16.490;2022-10-16T14:15:17;15.70;90.70
12125;DHT22;6126;57.908;16.490;2022-10-16T14:17:47;15.40;90.60
12125;DHT22;6126;57.908;16.490;2022-10-16T14:20:16;15.40;90.60
12125;DHT22;6126;57.908;16.490;2022-10-16T14:25:43;15.40;90.60
12125;DHT22;6126;57.908;16.490;2022-10-16T14:30:49;15.60;90.70
12125;DHT22;6126;57.908;16.490;2022-10-16T14:33:23;15.70;90.70
12125;DHT22;6126;57.908;16.490;2022-10-16T14:36:04;15.40;90.60
12125;DHT22;6126;57.908;16.490;2022-10-16T14:38:32;15.20;90.40
12125;DHT22;6126;57.908;16.490;2022-10-16T14:40:59;15.40;90.40
12125;DHT22;6126;57.908;16.490;2022-10-16T14:43:33;15.20;90.30
12125;DHT22;6126;57.908;16.490;2022-10-16T14:46:04;15.60;90.50
12125;DHT22;6126;57.908;16.490;2022-10-16T14:48:34;15.40;90.40
12125;DHT22;6126;57.908;16.490;2022-10-16T14:51:00;15.20;90.30
12125;DHT22;6126;57.908;16.490;2022-10-16T14:53:26;15.30;90.30
12125;DHT22;6126;57.908;16.490;2022-10-16T14:55:52;15.30;90.30
12125;DHT22;6126;57.908;16.490;2022-10-16T14:58:21;15.40;90.30
12125;DHT22;6126;57.908;16.490;2022-10-16T15:00:48;15.10;90.20
12125;DHT22;6126;57.908;16.490;2022-10-16T15:03:15;15.50;90.20
12125;DHT22;6126;57.908;16.490;2022-10-16T15:05:41;15.10;89.80
12125;DHT22;6126;57.908;16.490;2022-10-16T15:08:07;14.90;90.00
12125;DHT22;6126;57.908;16.490;2022-10-16T15:10:38;14.30;90.00
12125;DHT22;6126;57.908;16.490;2022-10-16T15:13:08;14.40;90.40
12125;DHT22;6126;57.908;16.490;2022-10-16T15:15:44;13.90;90.40
12125;DHT22;6126;57.908;16.490;2022-10-16T15:18:11;13.90;90.60
12125;DHT22;6126;57.908;16.490;2022-10-16T15:20:40;13.80;90.80
12125;DHT22;6126;57.908;16.490;2022-10-16T15:23:13;13.30;90.60
12125;DHT22;6126;57.908;16.490;2022-10-16T15:25:51;13.30;90.70
12125;DHT22;6126;57.908;16.490;2022-10-16T15:28:20;12.90;90.80
12125;DHT22;6126;57.908;16.490;2022-10-16T15:30:50;12.90;90.90
12125;DHT22;6126;57.908;16.490;2022-10-16T15:33:25;12.70;91.00
12125;DHT22;6126;57.908;16.490;2022-10-16T15:35:54;12.60;91.10
12125;DHT22;6126;57.908;16.490;2022-10-16T15:38:21;13.00;91.40
12125;DHT22;6126;57.908;16.490;2022-10-16T15:40:48;13.00;91.40
12125;DHT22;6126;57.908;16.490;2022-10-16T15:43:14;12.60;91.20
12125;DHT22;6126;57.908;16.490;2022-10-16T15:45:41;12.70;91.20
12125;DHT22;6126;57.908;16.490;2022-10-16T15:48:11;12.90;91.40
12125;DHT22;6126;57.908;16.490;2022-10-16T15:50:39;12.60;91.20
12125;DHT22;6126;57.908;16.490;2022-10-16T15:53:05;12.40;91.20
12125;DHT22;6126;57.908;16.490;2022-10-16T15:55:31;12.40;91.30
12125;DHT22;6126;57.908;16.490;2022-10-16T15:57:57;12.50;91.40
12125;DHT22;6126;57.908;16.490;2022-10-16T16:00:22;12.20;91.30
12125;DHT22;6126;57.908;16.490;2022-10-16T16:02:53;12.30;91.50
12125;DHT22;6126;57.908;16.490;2022-10-16T16:05:21;12.10;91.40
12125;DHT22;6126;57.908;16.490;2022-10-16T16:07:48;12.20;91.50
12125;DHT22;6126;57.908;16.490;2022-10-16T16:10:15;12.20;91.60
12125;DHT22;6126;57.908;16.490;2022-10-16T16:12:42;12.00;91.50
12125;DHT22;6126;57.908;16.490;2022-10-16T16:15:09;11.90;91.50
12125;DHT22;6126;57.908;16.490;2022-10-16T16:17:35;11.80;91.50
12125;DHT22;6126;57.908;16.490;2022-10-16T16:20:02;11.80;91.70
12125;DHT22;6126;57.908;16.490;2022-10-16T16:22:30;11.70;91.60
12125;DHT22;6126;57.908;16.490;2022-10-16T16:24:55;11.70;91.60
12125;DHT22;6126;57.908;16.490;2022-10-16T16:27:21;11.70;91.70
12125;DHT22;6126;57.908;16.490;2022-10-16T16:29:49;11.60;91.70
12125;DHT22;6126;57.908;16.490;2022-10-16T16:32:16;11.60;91.70
12125;DHT22;6126;57.908;16.490;2022-10-16T16:34:41;11.50;91.80
12125;DHT22;6126;57.908;16.490;2022-10-16T16:37:07;11.30;91.70
12125;DHT22;6126;57.908;16.490;2022-10-16T16:39:33;11.70;92.20
12125;DHT22;6126;57.908;16.490;2022-10-16T16:41:59;11.40;91.80
12125;DHT22;6126;57.908;16.490;2022-10-16T16:44:25;11.10;91.70
12125;DHT22;6126;57.908;16.490;2022-10-16T16:46:51;11.30;91.90
12125;DHT22;6126;57.908;16.490;2022-10-16T16:49:18;11.40;91.90
12125;DHT22;6126;57.908;16.490;2022-10-16T16:51:43;11.30;91.90
12125;DHT22;6126;57.908;16.490;2022-10-16T16:54:10;11.30;91.90
12125;DHT22;6126;57.908;16.490;2022-10-16T16:56:38;11.40;92.00
12125;DHT22;6126;57.908;16.490;2022-10-16T16:59:04;11.20;91.90
12125;DHT22;6126;57.908;16.490;2022-10-16T17:01:31;11.10;91.80
12125;DHT22;6126;57.908;16.490;2022-10-16T17:03:57;11.30;92.00
12125;DHT22;6126;57.908;16.490;2022-10-16T17:06:27;11.20;92.00
12125;DHT22;6126;57.908;16.490;2022-10-16T17:08:55;11.10;92.00
12125;DHT22;6126;57.908;16.490;2022-10-16T17:11:23;11.10;92.00
12125;DHT22;6126;57.908;16.490;2022-10-16T17:13:51;11.10;92.00
12125;DHT22;6126;57.908;16.490;2022-10-16T17:16:22;11.10;92.00
12125;DHT22;6126;57.908;16.490;2022-10-16T17:18:50;11.10;92.00
12125;DHT22;6126;57.908;16.490;2022-10-16T17:21:16;10.90;92.00
12125;DHT22;6126;57.908;16.490;2022-10-16T17:23:42;11.00;92.10
12125;DHT22;6126;57.908;16.490;2022-10-16T17:26:12;10.90;92.10
12125;DHT22;6126;57.908;16.490;2022-10-16T17:28:39;11.00;92.10
12125;DHT22;6126;57.908;16.490;2022-10-16T17:31:09;11.00;92.10
12125;DHT22;6126;57.908;16.490;2022-10-16T17:33:35;10.80;92.10
12125;DHT22;6126;57.908;16.490;2022-10-16T17:36:01;10.90;92.10
12125;DHT22;6126;57.908;16.490;2022-10-16T17:38:27;10.80;92.10
12125;DHT22;6126;57.908;16.490;2022-10-16T17:40:52;10.90;92.10
12125;DHT22;6126;57.908;16.490;2022-10-16T17:43:18;10.90;92.20
12125;DHT22;6126;57.908;16.490;2022-10-16T17:45:44;10.80;92.20
12125;DHT22;6126;57.908;16.490;2022-10-16T17:48:10;10.80;92.10
12125;DHT22;6126;57.908;16.490;2022-10-16T17:50:40;10.80;92.20
12125;DHT22;6126;57.908;16.490;2022-10-16T17:53:06;10.80;92.20
12125;DHT22;6126;57.908;16.490;2022-10-16T17:55:40;10.80;92.20
12125;DHT22;6126;57.908;16.490;2022-10-16T17:58:07;11.00;92.30